Time;durP1;ratioP1;P1;durP2;ratioP2;P2;SDS_P1;SDS_P2;PMS_P1;PMS_P2;Temp;Humidity;BMP_temperature;BMP_pressure;BME280_temperature;BME280_humidity;BME280_pressure;Samples;Min_cycle;Max_cycle;Signal;HPM_P1;HPM_P2
2022/03/09 00:01:40;;;;;;;12.67;5.70;;;3.40;64.80;;;;;;5031692;28;20483;-70
2022/03/09 00:04:06;;;;;;;9.80;5.13;;;3.40;64.70;;;;;;5032859;28;20343;-70
2022/03/09 00:06:32;;;;;;;10.60;5.87;;;3.40;64.50;;;;;;5032827;28;20646;-70
2022/03/09 00:08:58;;;;;;;15.75;6.63;;;3.50;64.50;;;;;;5033093;28;20021;-69
2022/03/09 00:11:23;;;;;;;9.17;5.53;;;3.50;64.60;;;;;;5048143;28;20030;-69
2022/03/09 00:13:49;;;;;;;12.50;6.17;;;3.50;64.40;;;;;;5048114;28;20340;-70
2022/03/09 00:16:15;;;;;;;10.30;5.70;;;3.50;65.00;;;;;;5033062;28;20038;-70
2022/03/09 00:18:40;;;;;;;9.45;5.55;;;3.50;64.40;;;;;;5031655;28;20025;-69
2022/03/09 00:21:06;;;;;;;10.25;5.40;;;3.60;64.40;;;;;;5036293;28;20552;-69
2022/03/09 00:23:32;;;;;;;11.30;5.37;;;3.60;64.40;;;;;;5051711;28;20122;-70
2022/03/09 00:25:57;;;;;;;15.23;7.60;;;3.60;64.60;;;;;;5036151;28;20079;-70
2022/03/09 00:28:23;;;;;;;14.50;7.63;;;3.60;64.80;;;;;;5034872;28;20083;-70
2022/03/09 00:30:48;;;;;;;9.80;5.70;;;3.60;64.70;;;;;;5035820;28;20029;-71
2022/03/09 00:33:14;;;;;;;14.10;7.57;;;3.60;65.30;;;;;;5051544;28;20063;-71
2022/03/09 00:35:40;;;;;;;35.80;18.73;;;3.60;64.70;;;;;;5051487;28;20029;-70
2022/03/09 00:38:06;;;;;;;23.13;10.47;;;3.60;64.80;;;;;;5036038;28;20041;-70
2022/03/09 00:40:32;;;;;;;11.75;7.75;;;3.50;65.00;;;;;;5034570;28;20091;-70
2022/03/09 00:42:57;;;;;;;11.32;6.85;;;3.50;65.70;;;;;;5036172;28;20029;-70
2022/03/09 00:45:23;;;;;;;13.77;6.63;;;3.50;65.30;;;;;;5035644;28;20026;-71
2022/03/09 00:47:49;;;;;;;12.40;6.40;;;3.50;65.70;;;;;;5035892;28;20071;-70
2022/03/09 00:50:15;;;;;;;10.50;6.43;;;3.50;65.20;;;;;;5034328;28;20029;-70
2022/03/09 00:52:41;;;;;;;12.57;6.55;;;3.50;64.90;;;;;;5036090;28;20021;-70
2022/03/09 00:55:07;;;;;;;9.40;5.80;;;3.60;64.90;;;;;;5035651;28;20018;-70
2022/03/09 00:57:33;;;;;;;;;;;3.60;64.80;;;;;;5041220;28;20025;-71
2022/03/09 00:59:58;;;;;;;13.55;6.63;;;3.60;64.80;;;;;;5042027;28;19974;-71
2022/03/09 01:02:24;;;;;;;13.53;6.97;;;3.70;65.00;;;;;;5038478;28;20105;-70
2022/03/09 01:04:50;;;;;;;13.95;6.40;;;3.60;66.00;;;;;;5034579;28;20018;-70
2022/03/09 01:07:16;;;;;;;12.23;5.40;;;3.60;65.70;;;;;;5034176;28;20033;-70
2022/03/09 01:09:41;;;;;;;14.33;6.17;;;3.50;65.90;;;;;;5035592;28;20108;-70
2022/03/09 01:12:07;;;;;;;10.97;5.90;;;3.40;66.30;;;;;;5051096;28;20052;-71
2022/03/09 01:14:33;;;;;;;10.95;5.85;;;3.30;66.70;;;;;;5035674;28;20790;-70
2022/03/09 01:16:59;;;;;;;15.17;7.03;;;3.30;66.80;;;;;;5035663;28;20034;-69
2022/03/09 01:19:24;;;;;;;11.52;5.95;;;3.20;67.20;;;;;;5035562;28;20025;-70
2022/03/09 01:21:50;;;;;;;11.03;5.80;;;3.20;67.40;;;;;;5035334;28;20080;-70
2022/03/09 01:24:16;;;;;;;10.03;5.97;;;3.10;67.50;;;;;;5035463;28;20068;-72
2022/03/09 01:26:42;;;;;;;12.87;6.20;;;3.10;67.90;;;;;;5050687;28;20075;-70
2022/03/09 01:29:09;;;;;;;13.15;5.97;;;3.10;68.10;;;;;;5035318;28;20669;-71
2022/03/09 01:31:35;;;;;;;12.95;7.55;;;3.10;68.10;;;;;;5034593;28;20025;-70
2022/03/09 01:34:01;;;;;;;16.58;10.32;;;3.00;68.60;;;;;;5035206;28;20029;-71
2022/03/09 01:36:26;;;;;;;18.35;11.05;;;3.00;68.80;;;;;;5035569;28;20538;-71
2022/03/09 01:38:52;;;;;;;18.33;11.00;;;2.90;68.70;;;;;;5037133;28;20065;-69
2022/03/09 01:41:18;;;;;;;15.73;8.90;;;3.20;69.80;;;;;;5038075;28;20096;-70
2022/03/09 01:43:43;;;;;;;13.50;8.03;;;3.20;68.70;;;;;;5037483;28;20038;-69
2022/03/09 01:46:09;;;;;;;11.37;6.87;;;3.20;68.50;;;;;;5037486;28;20030;-74
2022/03/09 01:48:35;;;;;;;15.38;7.30;;;3.10;68.50;;;;;;5036551;28;20272;-70
2022/03/09 01:51:01;;;;;;;13.67;8.70;;;3.10;68.20;;;;;;5033663;28;20501;-72
2022/03/09 01:53:27;;;;;;;13.90;8.02;;;3.10;68.40;;;;;;5035075;28;20014;-70
2022/03/09 01:55:52;;;;;;;14.67;6.83;;;3.10;69.00;;;;;;5034715;28;20108;-70
2022/03/09 01:58:18;;;;;;;12.10;6.10;;;3.10;69.60;;;;;;5034564;28;20030;-70
2022/03/09 02:00:44;;;;;;;14.20;6.90;;;3.00;69.40;;;;;;5034596;28;20033;-70
2022/03/09 02:03:09;;;;;;;10.30;5.97;;;3.00;69.50;;;;;;5049883;28;20029;-70
2022/03/09 02:05:35;;;;;;;11.57;6.73;;;3.00;69.50;;;;;;5033460;28;20021;-69
2022/03/09 02:10:46;;;;;;;13.98;6.68;;;2.90;70.60;;;;;;5036269;28;20477;-70
2022/03/09 02:13:12;;;;;;;;;;;2.90;70.50;;;;;;5034839;28;20351;-70
2022/03/09 02:15:38;;;;;;;11.60;6.63;;;2.80;70.90;;;;;;5050043;28;19905;-70
2022/03/09 02:18:04;;;;;;;10.95;5.75;;;2.80;71.80;;;;;;5038649;28;20034;-70
2022/03/09 02:20:30;;;;;;;13.38;6.60;;;2.70;71.90;;;;;;5037648;28;20116;-70
2022/03/09 02:22:56;;;;;;;13.37;6.83;;;2.60;72.20;;;;;;5034922;28;20111;-70
2022/03/09 02:25:22;;;;;;;11.38;6.22;;;2.60;72.80;;;;;;5034186;28;20030;-70
2022/03/09 02:27:48;;;;;;;10.48;6.38;;;2.50;73.30;;;;;;5032696;28;20483;-70
2022/03/09 02:30:17;;;;;;;9.68;6.13;;;2.40;73.80;;;;;;5033922;28;20029;-70
2022/03/09 02:32:44;;;;;;;12.18;5.50;;;2.40;74.30;;;;;;5032597;28;20029;-70
2022/03/09 02:35:11;;;;;;;14.05;6.85;;;2.40;74.70;;;;;;5049031;28;20017;-69
2022/03/09 02:37:38;;;;;;;11.35;5.97;;;2.30;74.90;;;;;;5033715;28;20532;-69
2022/03/09 02:40:09;;;;;;;10.98;5.80;;;2.30;75.00;;;;;;5033551;28;20025;-69
2022/03/09 02:42:35;;;;;;;11.30;6.03;;;2.20;75.10;;;;;;5031446;28;20113;-69
2022/03/09 02:45:01;;;;;;;12.03;6.10;;;2.20;75.10;;;;;;5033600;28;20052;-69
2022/03/09 02:47:26;;;;;;;7.97;5.30;;;2.20;75.10;;;;;;5032302;28;20029;-69
2022/03/09 02:49:52;;;;;;;12.73;6.33;;;2.20;75.10;;;;;;5048830;28;20264;-70
2022/03/09 02:52:17;;;;;;;12.23;6.70;;;2.20;74.90;;;;;;5033770;28;20022;-70
2022/03/09 02:54:43;;;;;;;12.30;6.37;;;2.10;75.30;;;;;;5032708;28;20021;-69
2022/03/09 02:57:09;;;;;;;10.10;5.97;;;2.10;75.60;;;;;;5033800;28;20174;-69
2022/03/09 02:59:35;;;;;;;11.67;6.20;;;2.10;75.60;;;;;;5033611;28;20049;-69
2022/03/09 03:02:01;;;;;;;14.05;6.10;;;2.10;75.70;;;;;;5032196;28;20028;-71
2022/03/09 03:04:27;;;;;;;10.65;6.10;;;2.10;76.20;;;;;;5033486;28;20478;-71
2022/03/09 03:06:52;;;;;;;11.50;5.80;;;2.00;76.30;;;;;;5033031;28;20040;-70
2022/03/09 03:09:18;;;;;;;11.07;6.00;;;2.00;76.50;;;;;;5033063;28;20021;-70
2022/03/09 03:11:44;;;;;;;10.67;5.93;;;2.00;77.50;;;;;;5033131;28;20031;-70
2022/03/09 03:14:10;;;;;;;11.00;5.57;;;2.00;77.30;;;;;;5048730;28;20474;-70
2022/03/09 03:16:35;;;;;;;11.20;5.60;;;1.90;77.30;;;;;;5033605;28;20437;-69
2022/03/09 03:19:01;;;;;;;11.70;5.87;;;1.90;77.70;;;;;;5032963;28;20032;-70
2022/03/09 03:21:26;;;;;;;9.43;5.77;;;1.90;78.10;;;;;;5033055;28;20091;-70
2022/03/09 03:23:52;;;;;;;12.43;5.83;;;1.80;78.20;;;;;;5033190;28;20113;-70
2022/03/09 03:26:18;;;;;;;11.50;6.17;;;1.80;78.90;;;;;;5032872;28;20021;-70
2022/03/09 03:28:43;;;;;;;10.53;5.83;;;1.80;79.20;;;;;;5048422;28;20124;-70
2022/03/09 03:31:09;;;;;;;9.93;5.70;;;1.70;79.30;;;;;;5033074;28;20022;-70
2022/03/09 03:33:35;;;;;;;14.93;7.60;;;1.70;79.90;;;;;;5032935;28;20113;-70
2022/03/09 03:36:00;;;;;;;12.40;6.03;;;1.60;80.40;;;;;;5033051;28;20028;-69
2022/03/09 03:38:26;;;;;;;13.07;6.50;;;1.60;80.90;;;;;;5048242;28;20116;-69
2022/03/09 03:40:52;;;;;;;11.60;6.10;;;1.60;81.60;;;;;;5032886;28;20022;-69
2022/03/09 03:43:17;;;;;;;12.47;6.83;;;1.60;82.30;;;;;;5048113;28;20030;-70
2022/03/09 03:45:43;;;;;;;13.30;7.27;;;1.60;82.80;;;;;;5048045;28;20029;-69
2022/03/09 03:48:08;;;;;;;14.63;7.27;;;1.60;84.00;;;;;;5031721;28;20025;-70
2022/03/09 03:50:34;;;;;;;23.87;12.67;;;1.50;85.10;;;;;;5033055;28;20021;-70
2022/03/09 03:53:00;;;;;;;12.35;6.70;;;1.50;86.20;;;;;;5031626;28;20022;-71
2022/03/09 03:55:26;;;;;;;15.18;7.60;;;1.30;87.40;;;;;;5035911;28;20030;-70
2022/03/09 03:57:52;;;;;;;15.40;7.50;;;1.20;88.90;;;;;;5052057;28;20060;-70
2022/03/09 04:00:18;;;;;;;14.07;7.57;;;1.10;90.10;;;;;;5036799;28;20017;-69
2022/03/09 04:02:43;;;;;;;15.25;8.60;;;1.10;91.30;;;;;;5052102;28;20029;-70
2022/03/09 04:05:09;;;;;;;18.57;7.83;;;0.90;92.40;;;;;;5041051;28;20029;-71
2022/03/09 04:07:35;;;;;;;17.70;7.30;;;0.90;93.60;;;;;;5038695;28;20087;-69
2022/03/09 04:10:00;;;;;;;16.30;7.93;;;0.80;94.60;;;;;;5037538;28;20394;-70
2022/03/09 04:12:26;;;;;;;14.82;7.90;;;0.70;95.10;;;;;;5036659;28;20375;-69
2022/03/09 04:14:53;;;;;;;14.50;6.80;;;0.70;95.70;;;;;;5051578;28;20145;-70
2022/03/09 04:17:18;;;;;;;15.65;7.72;;;0.60;96.30;;;;;;5036235;28;20030;-69
2022/03/09 04:19:44;;;;;;;13.50;7.73;;;0.60;97.00;;;;;;5051534;28;20402;-69
2022/03/09 04:22:10;;;;;;;16.30;7.70;;;0.60;97.30;;;;;;5036234;28;20037;-69
2022/03/09 04:24:35;;;;;;;15.47;7.53;;;0.60;97.70;;;;;;5036273;28;20053;-70
2022/03/09 04:27:01;;;;;;;18.50;8.87;;;0.60;98.00;;;;;;5051404;28;20032;-70
2022/03/09 04:29:27;;;;;;;15.03;8.37;;;0.60;98.40;;;;;;5036331;28;20275;-69
2022/03/09 04:31:52;;;;;;;16.33;7.77;;;0.60;98.80;;;;;;5051626;28;20482;-69
2022/03/09 04:34:18;;;;;;;15.13;8.27;;;0.80;98.70;;;;;;5036099;28;20025;-70
2022/03/09 04:36:44;;;;;;;17.67;8.10;;;1.20;97.70;;;;;;5036140;28;20033;-70
2022/03/09 04:39:09;;;;;;;16.97;8.30;;;1.30;97.70;;;;;;5034886;28;20025;-70
2022/03/09 04:41:35;;;;;;;15.83;8.57;;;1.40;97.00;;;;;;5036441;28;20478;-70
2022/03/09 04:44:00;;;;;;;13.80;7.53;;;1.30;97.20;;;;;;5036049;28;20052;-69
2022/03/09 04:46:26;;;;;;;15.77;7.33;;;1.10;97.60;;;;;;5036143;28;20053;-69
2022/03/09 04:48:52;;;;;;;20.80;8.47;;;1.10;97.60;;;;;;5034732;28;20024;-70
2022/03/09 04:51:18;;;;;;;13.15;7.40;;;1.10;97.50;;;;;;5051367;28;20025;-70
2022/03/09 04:53:43;;;;;;;15.53;7.20;;;1.00;97.50;;;;;;5035696;28;20072;-70
2022/03/09 04:56:09;;;;;;;20.92;6.55;;;0.90;97.30;;;;;;5036009;28;20029;-70
2022/03/09 04:58:35;;;;;;;12.30;6.60;;;0.80;97.70;;;;;;5035604;28;20324;-69
2022/03/09 05:01:01;;;;;;;12.10;6.37;;;0.80;97.70;;;;;;5035418;28;20112;-70
2022/03/09 05:03:26;;;;;;;13.00;6.60;;;0.80;97.10;;;;;;5050828;28;20108;-70
2022/03/09 05:05:52;;;;;;;14.80;6.83;;;0.80;97.20;;;;;;5034432;28;20525;-70
2022/03/09 05:08:18;;;;;;;10.43;5.60;;;0.70;97.10;;;;;;5050737;28;20351;-70
2022/03/09 05:10:43;;;;;;;10.80;5.90;;;0.70;97.10;;;;;;5036118;28;20030;-70
2022/03/09 05:13:09;;;;;;;14.43;5.97;;;0.70;97.20;;;;;;5040227;28;20498;-71
2022/03/09 05:15:35;;;;;;;14.07;6.73;;;0.70;97.40;;;;;;5055457;28;20057;-70
2022/03/09 05:18:00;;;;;;;14.23;6.53;;;0.60;97.10;;;;;;5035672;28;20044;-70
2022/03/09 05:20:26;;;;;;;21.67;6.93;;;0.60;97.10;;;;;;5035421;28;20474;-70
2022/03/09 05:22:52;;;;;;;13.43;6.70;;;0.60;97.10;;;;;;5035437;28;20498;-70
2022/03/09 05:25:18;;;;;;;14.43;7.23;;;0.50;97.10;;;;;;5050258;28;20402;-70
2022/03/09 05:27:44;;;;;;;15.18;6.63;;;0.60;97.20;;;;;;5034926;28;20673;-71
2022/03/09 05:30:10;;;;;;;14.05;7.25;;;0.80;97.10;;;;;;5033536;28;20025;-69
2022/03/09 05:32:36;;;;;;;13.57;6.10;;;0.70;96.90;;;;;;5034744;28;20028;-70
2022/03/09 05:35:03;;;;;;;12.65;5.95;;;0.60;96.90;;;;;;5050164;28;20048;-70
2022/03/09 05:37:44;;;;;;;14.63;6.18;;;0.60;97.10;;;;;;5034613;28;20032;-70
2022/03/09 05:40:10;;;;;;;13.85;6.07;;;0.40;97.20;;;;;;5033462;28;20053;-70
2022/03/09 05:42:37;;;;;;;16.00;6.75;;;0.40;97.60;;;;;;5035244;28;20030;-70
2022/03/09 05:45:04;;;;;;;10.27;5.60;;;0.30;97.90;;;;;;5035284;28;20025;-70
2022/03/09 05:47:30;;;;;;;13.20;6.63;;;0.40;98.30;;;;;;5033717;28;20453;-71
2022/03/09 05:49:56;;;;;;;14.48;6.63;;;0.50;97.60;;;;;;5034651;28;20459;-73
2022/03/09 05:52:21;;;;;;;13.10;6.30;;;0.40;98.00;;;;;;5033357;28;20040;-71
2022/03/09 05:54:47;;;;;;;11.93;6.30;;;0.30;98.60;;;;;;5034408;28;20030;-71
2022/03/09 05:57:13;;;;;;;10.70;5.73;;;0.20;98.90;;;;;;5034993;28;20060;-71
2022/03/09 05:59:39;;;;;;;13.32;7.05;;;0.10;99.10;;;;;;5033185;28;20032;-68
2022/03/09 06:02:04;;;;;;;14.00;6.47;;;0.10;99.30;;;;;;5034101;28;20394;-69
2022/03/09 06:04:30;;;;;;;10.60;6.10;;;0.10;99.40;;;;;;5034056;28;20033;-69
2022/03/09 06:06:56;;;;;;;12.57;6.13;;;0.30;99.50;;;;;;5034167;28;20494;-68
2022/03/09 06:09:21;;;;;;;13.82;6.32;;;1.00;98.40;;;;;;5033913;28;20017;-68
2022/03/09 06:11:47;;;;;;;11.13;6.67;;;1.30;96.50;;;;;;5033906;28;20065;-69
2022/03/09 06:14:12;;;;;;;9.90;5.60;;;1.20;96.40;;;;;;5049770;28;20111;-68
2022/03/09 06:16:38;;;;;;;12.40;6.17;;;1.20;96.60;;;;;;5034321;28;20029;-68
2022/03/09 06:19:04;;;;;;;14.83;6.47;;;1.20;96.50;;;;;;5049568;28;20052;-69
2022/03/09 06:21:29;;;;;;;16.27;6.53;;;1.00;96.90;;;;;;5033928;28;20033;-69
2022/03/09 06:23:55;;;;;;;16.97;7.73;;;0.90;97.50;;;;;;5049462;28;20470;-68
2022/03/09 06:26:21;;;;;;;16.30;6.47;;;0.80;98.00;;;;;;5035274;28;20029;-69
2022/03/09 06:28:46;;;;;;;18.93;7.20;;;0.80;98.30;;;;;;5036663;28;20120;-68
2022/03/09 06:31:12;;;;;;;20.53;7.87;;;0.80;98.60;;;;;;5039543;28;20067;-69
2022/03/09 06:33:37;;;;;;;16.17;6.13;;;0.80;99.50;;;;;;5036256;28;20049;-67
2022/03/09 06:36:06;;;;;;;16.40;6.23;;;0.80;99.80;;;;;;5049963;28;20522;-66
2022/03/09 06:38:35;;;;;;;16.52;6.65;;;0.80;99.60;;;;;;5035487;28;20036;-70
2022/03/09 06:41:01;;;;;;;15.35;6.80;;;0.90;99.00;;;;;;5050344;28;20121;-72
2022/03/09 06:43:26;;;;;;;13.40;6.47;;;0.90;98.70;;;;;;5049588;28;20071;-72
2022/03/09 06:45:52;;;;;;;13.83;6.10;;;0.90;98.70;;;;;;5033666;28;20026;-73
2022/03/09 06:48:17;;;;;;;15.23;7.00;;;0.90;98.20;;;;;;5033901;28;20032;-71
2022/03/09 06:50:43;;;;;;;13.63;6.93;;;0.90;98.00;;;;;;5034260;28;20458;-72
2022/03/09 06:53:10;;;;;;;14.80;6.97;;;0.90;97.80;;;;;;5032668;28;20048;-68
2022/03/09 06:55:35;;;;;;;;;;;0.90;97.60;;;;;;5034158;28;20029;-69
2022/03/09 06:58:01;;;;;;;18.35;7.72;;;1.00;97.40;;;;;;5032799;28;19959;-72
2022/03/09 07:00:27;;;;;;;12.77;6.35;;;1.00;97.20;;;;;;5033844;28;20029;-68
2022/03/09 07:02:53;;;;;;;12.07;6.47;;;1.00;96.80;;;;;;5033470;28;20030;-70
2022/03/09 07:05:19;;;;;;;14.63;7.10;;;1.10;96.60;;;;;;5032273;28;20022;-71
2022/03/09 07:07:45;;;;;;;17.10;7.22;;;1.10;96.50;;;;;;5033087;28;20021;-70
2022/03/09 07:10:12;;;;;;;12.63;5.90;;;1.10;96.40;;;;;;5037522;28;20056;-71
2022/03/09 07:12:39;;;;;;;14.55;7.13;;;1.10;96.40;;;;;;5035841;28;20585;-78
2022/03/09 07:15:05;;;;;;;;;;;1.10;96.40;;;;;;5035824;28;20049;-76
2022/03/09 07:17:30;;;;;;;14.20;6.72;;;1.10;96.30;;;;;;5033240;28;19905;-73
2022/03/09 07:19:56;;;;;;;18.57;6.87;;;1.10;96.10;;;;;;5048982;28;20033;-70
2022/03/09 07:22:22;;;;;;;14.57;7.13;;;1.20;96.20;;;;;;5049033;28;20084;-71
2022/03/09 07:24:48;;;;;;;13.63;6.47;;;1.20;95.90;;;;;;5033173;28;20475;-72
2022/03/09 07:27:14;;;;;;;14.70;6.27;;;1.20;95.10;;;;;;5033329;28;20033;-71
2022/03/09 07:29:40;;;;;;;13.30;6.57;;;1.30;95.50;;;;;;5031247;28;20447;-73
2022/03/09 07:32:05;;;;;;;10.27;6.32;;;1.30;95.40;;;;;;5031477;28;20018;-73
2022/03/09 07:34:31;;;;;;;16.23;6.90;;;1.40;95.50;;;;;;5033043;28;20027;-72
2022/03/09 07:36:58;;;;;;;13.07;6.93;;;1.40;95.40;;;;;;5033127;28;20053;-72
2022/03/09 07:39:31;;;;;;;12.18;7.05;;;1.50;95.40;;;;;;5033395;28;20061;-71
2022/03/09 07:41:57;;;;;;;13.25;6.53;;;1.50;95.00;;;;;;5033301;28;20083;-71
2022/03/09 07:44:24;;;;;;;17.77;7.53;;;1.60;94.70;;;;;;5032142;28;20031;-72
2022/03/09 07:46:50;;;;;;;15.20;6.72;;;1.70;94.40;;;;;;5032150;28;20030;-71
2022/03/09 07:49:17;;;;;;;;;;;1.70;94.00;;;;;;5049035;28;20112;-70
2022/03/09 07:51:43;;;;;;;16.50;6.03;;;1.80;93.80;;;;;;5032664;28;20366;-69
2022/03/09 07:54:09;;;;;;;16.10;7.30;;;1.90;93.20;;;;;;5048104;28;20047;-71
2022/03/09 07:56:35;;;;;;;12.00;6.97;;;2.00;92.80;;;;;;5031466;28;20120;-70
2022/03/09 07:59:02;;;;;;;14.98;7.05;;;2.00;92.70;;;;;;5032994;28;20439;-71
2022/03/09 08:01:28;;;;;;;13.77;7.65;;;2.10;92.70;;;;;;5032236;28;20088;-71
2022/03/09 08:03:54;;;;;;;16.67;8.17;;;2.20;92.50;;;;;;5032695;28;20421;-67
2022/03/09 08:06:20;;;;;;;12.90;7.07;;;2.30;92.20;;;;;;5032526;28;20048;-67
2022/03/09 08:08:46;;;;;;;10.95;6.43;;;2.30;91.50;;;;;;5047921;28;20486;-68
2022/03/09 08:11:13;;;;;;;12.50;7.18;;;2.40;91.00;;;;;;5033084;28;20386;-67
2022/03/09 08:13:38;;;;;;;18.02;6.90;;;2.50;90.90;;;;;;5037977;28;20022;-73
2022/03/09 08:16:04;;;;;;;14.93;7.13;;;2.60;91.00;;;;;;5039712;28;20033;-73
2022/03/09 08:18:30;;;;;;;15.60;7.13;;;2.70;90.60;;;;;;5032706;28;20098;-73
2022/03/09 08:20:55;;;;;;;15.23;7.30;;;2.80;90.50;;;;;;5048110;28;20037;-73
2022/03/09 08:23:23;;;;;;;13.17;6.33;;;2.80;89.50;;;;;;5048342;28;20037;-73
2022/03/09 08:25:49;;;;;;;19.80;7.22;;;2.90;89.30;;;;;;5031590;28;20489;-74
2022/03/09 08:28:15;;;;;;;11.23;6.60;;;3.00;88.20;;;;;;5031298;28;20177;-73
2022/03/09 08:30:41;;;;;;;12.55;7.28;;;3.10;88.30;;;;;;5047707;28;20460;-74
2022/03/09 08:33:07;;;;;;;14.37;7.23;;;3.10;88.00;;;;;;5048228;28;20026;-73
2022/03/09 08:35:33;;;;;;;13.15;6.70;;;3.10;87.20;;;;;;5032363;28;20026;-73
2022/03/09 08:37:59;;;;;;;14.05;7.13;;;3.20;87.60;;;;;;5032557;28;20370;-74
2022/03/09 08:40:25;;;;;;;16.27;7.95;;;3.30;87.60;;;;;;5030863;28;20091;-73
2022/03/09 08:42:51;;;;;;;17.93;7.17;;;3.30;87.00;;;;;;5035629;28;20026;-73
2022/03/09 08:45:16;;;;;;;22.75;7.90;;;3.40;86.90;;;;;;5035923;28;20022;-72
2022/03/09 08:47:42;;;;;;;17.70;7.70;;;3.50;86.60;;;;;;5034269;28;20083;-74
2022/03/09 08:50:10;;;;;;;13.93;7.77;;;3.60;86.30;;;;;;5035991;28;20022;-73
2022/03/09 08:52:36;;;;;;;15.27;6.75;;;3.70;85.70;;;;;;5035784;28;20493;-70
2022/03/09 08:55:03;;;;;;;15.10;7.20;;;3.80;84.40;;;;;;5035767;28;20053;-71
2022/03/09 08:57:29;;;;;;;;;;;3.90;83.70;;;;;;5051314;28;20120;-71
2022/03/09 08:59:57;;;;;;;14.15;6.78;;;4.00;82.70;;;;;;5035612;28;19905;-71
2022/03/09 09:02:23;;;;;;;13.77;6.75;;;4.10;81.80;;;;;;5035519;28;20397;-71
2022/03/09 09:04:49;;;;;;;16.77;7.18;;;4.20;81.80;;;;;;5034252;28;20052;-72
2022/03/09 09:07:14;;;;;;;12.77;6.90;;;4.20;81.80;;;;;;5035883;28;20084;-71
2022/03/09 09:09:40;;;;;;;15.53;7.47;;;4.30;81.40;;;;;;5035973;28;20047;-71
2022/03/09 09:12:06;;;;;;;13.07;7.23;;;4.40;80.70;;;;;;5034676;28;20021;-71
2022/03/09 09:14:31;;;;;;;13.20;6.95;;;5.00;80.20;;;;;;5033845;28;20172;-71
2022/03/09 09:16:57;;;;;;;11.60;7.27;;;6.60;74.00;;;;;;5051082;28;20033;-71
2022/03/09 09:19:23;;;;;;;11.82;7.30;;;9.00;68.10;;;;;;5035262;28;20037;-71
2022/03/09 09:21:49;;;;;;;10.40;6.70;;;11.90;59.90;;;;;;5035210;28;20049;-70
2022/03/09 09:24:15;;;;;;;9.73;6.57;;;14.80;53.60;;;;;;5051320;28;20065;-71
2022/03/09 09:26:40;;;;;;;;;;;17.20;49.00;;;;;;5036649;28;20032;-71
2022/03/09 09:29:07;;;;;;;12.00;8.57;;;18.80;46.40;;;;;;5035053;28;20344;-71
2022/03/09 09:31:32;;;;;;;;;;;20.40;44.60;;;;;;5035424;28;20036;-71
2022/03/09 09:33:58;;;;;;;10.77;8.02;;;21.50;41.60;;;;;;5033972;28;19905;-70
2022/03/09 09:36:24;;;;;;;10.00;8.13;;;22.10;40.20;;;;;;5035113;28;20060;-71
2022/03/09 09:38:49;;;;;;;11.52;8.40;;;22.10;39.20;;;;;;5050185;28;20025;-72
2022/03/09 09:41:18;;;;;;;;;;;22.50;38.20;;;;;;5035163;28;20439;-71
2022/03/09 09:43:45;;;;;;;10.02;7.75;;;22.80;38.20;;;;;;5034727;28;19916;-71
2022/03/09 09:46:15;;;;;;;10.40;9.13;;;23.40;37.10;;;;;;5034688;28;20040;-70
2022/03/09 09:48:42;;;;;;;11.13;8.18;;;22.90;36.50;;;;;;5034946;28;20029;-71
2022/03/09 09:51:08;;;;;;;10.13;8.25;;;22.30;36.90;;;;;;5034974;28;20022;-71
2022/03/09 09:53:35;;;;;;;;;;;22.70;36.60;;;;;;5034625;28;20048;-71
2022/03/09 09:56:01;;;;;;;;;;;22.10;37.30;;;;;;5035452;28;19912;-72
2022/03/09 09:58:28;;;;;;;13.15;8.57;;;22.00;36.80;;;;;;5037412;28;19905;-68
2022/03/09 10:00:55;;;;;;;11.93;9.45;;;22.60;37.10;;;;;;5035646;28;20033;-72
2022/03/09 10:03:20;;;;;;;13.52;9.10;;;23.90;36.50;;;;;;5034741;28;20438;-70
2022/03/09 10:05:47;;;;;;;10.27;9.13;;;25.00;35.40;;;;;;5035182;28;20030;-71
2022/03/09 10:08:14;;;;;;;10.13;8.48;;;25.70;34.40;;;;;;5035630;28;20104;-71
2022/03/09 10:11:01;;;;;;;10.82;8.90;;;25.30;34.60;;;;;;5036728;28;20386;-70
2022/03/09 10:13:28;;;;;;;13.20;9.65;;;25.30;34.50;;;;;;5035120;28;20025;-69
2022/03/09 10:16:20;;;;;;;12.88;8.90;;;23.40;34.90;;;;;;5034937;28;20029;-69
2022/03/09 10:18:56;;;;;;;10.77;9.68;;;24.30;35.10;;;;;;5033586;28;20024;-69
2022/03/09 10:21:25;;;;;;;14.70;10.10;;;24.30;35.30;;;;;;5034254;28;20036;-68
2022/03/09 10:23:56;;;;;;;12.30;10.27;;;25.00;35.20;;;;;;5034440;28;20108;-69
2022/03/09 10:26:27;;;;;;;11.25;9.07;;;24.90;34.40;;;;;;5034135;28;20023;-69
2022/03/09 10:29:00;;;;;;;15.07;9.70;;;25.10;34.50;;;;;;5034182;28;20025;-70
2022/03/09 10:31:43;;;;;;;13.00;9.18;;;25.80;34.30;;;;;;5034223;28;20018;-68
2022/03/09 10:34:24;;;;;;;10.88;9.77;;;26.70;33.60;;;;;;5033081;28;20025;-69
2022/03/09 10:37:04;;;;;;;11.50;9.88;;;26.00;33.70;;;;;;5032816;28;20028;-69
2022/03/09 10:39:37;;;;;;;12.20;9.73;;;26.20;33.30;;;;;;5033955;28;20072;-69
2022/03/09 10:42:04;;;;;;;18.45;11.57;;;27.00;33.10;;;;;;5033828;28;20029;-69
2022/03/09 10:44:45;;;;;;;13.80;9.80;;;27.00;33.30;;;;;;5032475;28;20120;-69
2022/03/09 10:47:27;;;;;;;12.38;9.98;;;26.80;32.90;;;;;;5033537;28;20025;-69
2022/03/09 10:49:52;;;;;;;11.45;10.20;;;26.10;33.00;;;;;;5033747;28;20021;-69
2022/03/09 10:52:18;;;;;;;13.13;9.95;;;26.40;33.70;;;;;;5032301;28;20026;-69
2022/03/09 10:54:44;;;;;;;10.43;9.35;;;26.50;33.70;;;;;;5033809;28;20040;-68
2022/03/09 10:57:11;;;;;;;18.00;10.50;;;26.50;33.80;;;;;;5033694;28;20037;-69
2022/03/09 10:59:44;;;;;;;11.60;9.02;;;26.30;33.60;;;;;;5033638;28;20025;-68
2022/03/09 11:02:10;;;;;;;14.55;10.18;;;25.90;34.20;;;;;;5033582;28;20017;-68
2022/03/09 11:04:37;;;;;;;11.82;9.90;;;25.80;34.10;;;;;;5031326;28;20028;-68
2022/03/09 11:07:03;;;;;;;10.55;9.45;;;25.30;34.10;;;;;;5033093;28;20033;-67
2022/03/09 11:09:30;;;;;;;12.80;10.40;;;24.70;34.40;;;;;;5033757;28;20100;-68
2022/03/09 11:11:55;;;;;;;13.43;10.45;;;23.20;34.30;;;;;;5033405;28;20521;-70
2022/03/09 11:14:26;;;;;;;11.50;9.98;;;21.60;36.20;;;;;;5034116;28;20022;-70
2022/03/09 11:16:53;;;;;;;13.50;10.10;;;20.00;37.60;;;;;;5035788;28;20502;-70
2022/03/09 11:19:20;;;;;;;13.45;10.68;;;18.60;38.80;;;;;;5032187;28;20036;-70
2022/03/09 11:21:47;;;;;;;14.40;10.30;;;17.00;40.40;;;;;;5033453;28;20033;-70
2022/03/09 11:24:15;;;;;;;15.95;10.80;;;15.10;42.50;;;;;;5032377;28;20025;-69
2022/03/09 11:26:44;;;;;;;14.40;10.40;;;14.00;43.70;;;;;;5033419;28;20075;-69
2022/03/09 11:29:12;;;;;;;14.50;10.65;;;13.20;44.90;;;;;;5031989;28;20032;-69
2022/03/09 11:31:49;;;;;;;15.95;10.57;;;12.90;46.00;;;;;;5032949;28;20017;-69
2022/03/09 11:34:41;;;;;;;14.52;10.02;;;12.40;46.50;;;;;;5033178;28;20018;-70
2022/03/09 11:37:14;;;;;;;13.07;9.70;;;12.10;46.90;;;;;;5034317;28;20100;-70
2022/03/09 11:39:43;;;;;;;15.23;11.10;;;11.80;47.70;;;;;;5035403;28;20419;-69
2022/03/09 11:42:21;;;;;;;19.48;10.73;;;11.50;47.30;;;;;;5033971;28;20025;-69
2022/03/09 11:44:54;;;;;;;17.75;10.35;;;11.30;48.00;;;;;;5033069;28;20387;-69
2022/03/09 11:47:20;;;;;;;20.25;11.73;;;11.10;48.50;;;;;;5047915;28;20052;-69
2022/03/09 11:49:49;;;;;;;18.00;10.23;;;11.00;48.40;;;;;;5032828;28;20028;-70
2022/03/09 11:52:16;;;;;;;17.75;11.80;;;11.00;48.30;;;;;;5032853;28;20021;-70
2022/03/09 11:54:46;;;;;;;22.13;11.77;;;11.00;48.50;;;;;;5031691;28;20029;-70
2022/03/09 11:57:15;;;;;;;17.27;11.45;;;11.00;48.60;;;;;;5062896;22;20072;-64
2022/03/09 12:00:12;;;;;;;21.45;11.55;;;11.00;48.90;;;;;;5053091;28;20021;-64
2022/03/09 12:02:40;;;;;;;19.80;12.23;;;11.00;48.90;;;;;;5053137;28;20443;-64
2022/03/09 12:05:08;;;;;;;20.77;11.35;;;11.00;48.80;;;;;;5052744;28;20032;-64
2022/03/09 12:07:37;;;;;;;20.73;12.15;;;10.90;48.90;;;;;;5053116;28;20037;-63
2022/03/09 12:10:10;;;;;;;20.17;11.68;;;10.90;48.90;;;;;;5053157;28;20108;-63
2022/03/09 12:12:38;;;;;;;20.60;12.05;;;10.90;48.80;;;;;;5053763;28;20040;-64
2022/03/09 12:15:14;;;;;;;20.55;12.25;;;11.00;49.20;;;;;;5054823;28;20381;-64
2022/03/09 12:17:47;;;;;;;23.35;12.13;;;11.00;48.60;;;;;;5057597;28;20422;-63
2022/03/09 12:20:31;;;;;;;20.85;11.70;;;11.10;48.60;;;;;;5058112;28;20378;-61
2022/03/09 12:22:57;;;;;;;22.25;12.48;;;11.10;48.60;;;;;;5057399;28;20118;-64
2022/03/09 12:25:42;;;;;;;21.37;12.80;;;11.10;49.00;;;;;;5057773;28;20028;-64
2022/03/09 12:28:25;;;;;;;20.48;12.10;;;11.20;48.50;;;;;;5057262;28;20378;-63
2022/03/09 12:31:10;;;;;;;22.85;11.63;;;11.10;48.50;;;;;;5056379;28;20017;-63
2022/03/09 12:33:38;;;;;;;24.15;12.90;;;11.20;48.50;;;;;;5056253;28;20075;-63
2022/03/09 12:36:22;;;;;;;19.40;11.68;;;11.20;48.70;;;;;;5056289;28;20029;-63
2022/03/09 12:38:49;;;;;;;22.80;12.60;;;11.20;48.40;;;;;;5056675;28;20032;-64
2022/03/09 12:41:27;;;;;;;23.75;12.27;;;11.30;48.50;;;;;;5056294;28;20025;-64
2022/03/09 12:43:55;;;;;;;21.02;11.80;;;11.30;48.40;;;;;;5056129;28;20021;-63
2022/03/09 12:46:22;;;;;;;21.38;11.75;;;11.30;48.40;;;;;;5055942;28;20032;-64
2022/03/09 12:48:48;;;;;;;21.73;12.93;;;11.20;48.40;;;;;;5056325;28;20014;-64